Time;durP1;ratioP1;P1;durP2;ratioP2;P2;SDS_P1;SDS_P2;PMS_P1;PMS_P2;Temp;Humidity;BMP_temperature;BMP_pressure;BME280_temperature;BME280_humidity;BME280_pressure;Samples;Min_cycle;Max_cycle;Signal;HPM_P1;HPM_P2
2023/09/07 00:00:18;;;;;;;;;;;20.20;64.40;;;;;;4991837;28;87978;-53
2023/09/07 00:02:44;;;;;;;;;;;20.20;64.50;;;;;;4993573;28;88558;-57
2023/09/07 00:05:09;;;;;;;;;;;20.20;64.40;;;;;;4989189;28;88441;-52
2023/09/07 00:07:35;;;;;;;;;;;20.20;64.40;;;;;;4991465;28;87056;-57
2023/09/07 00:10:01;;;;;;;;;;;20.20;64.40;;;;;;4993869;28;87746;-57
2023/09/07 00:12:26;;;;;;;;;;;20.20;64.40;;;;;;4994439;28;87915;-55
2023/09/07 00:14:53;;;;;;;;;;;20.20;64.50;;;;;;4991442;28;87129;-54
2023/09/07 00:17:19;;;;;;;;;;;20.20;64.40;;;;;;4993215;28;89064;-52
2023/09/07 00:19:48;;;;;;;;;;;20.20;64.50;;;;;;4991715;28;87104;-54
2023/09/07 00:22:14;;;;;;;;;;;20.20;64.40;;;;;;4991002;28;87638;-57
2023/09/07 00:24:39;;;;;;;;;;;20.20;64.50;;;;;;4992281;28;89711;-58
2023/09/07 00:27:06;;;;;;;;;;;20.20;64.40;;;;;;4988246;28;87325;-53
2023/09/07 00:29:31;;;;;;;;;;;20.20;64.40;;;;;;4993446;28;87894;-51
2023/09/07 00:31:57;;;;;;;;;;;20.20;64.40;;;;;;4998023;28;90884;-56
2023/09/07 00:34:22;;;;;;;;;;;20.20;64.30;;;;;;4995221;28;87131;-51
2023/09/07 00:36:48;;;;;;;;;;;20.20;64.30;;;;;;4991868;28;88049;-56
2023/09/07 00:39:13;;;;;;;;;;;20.20;64.40;;;;;;4989910;28;87211;-55
2023/09/07 00:41:39;;;;;;;;;;;20.20;64.40;;;;;;4993945;28;89817;-56
2023/09/07 00:44:04;;;;;;;;;;;20.20;64.50;;;;;;4992594;28;88962;-53
2023/09/07 00:46:30;;;;;;;;;;;20.20;64.50;;;;;;4990732;28;87195;-58
2023/09/07 00:48:56;;;;;;;;;;;20.20;64.30;;;;;;4990773;28;88166;-55
2023/09/07 00:51:22;;;;;;;;;;;20.10;64.90;;;;;;4989712;28;88441;-53
2023/09/07 00:53:48;;;;;;;;;;;20.10;64.20;;;;;;4990234;28;87162;-53
2023/09/07 00:56:14;;;;;;;;;;;20.20;64.20;;;;;;4993906;28;87608;-56
2023/09/07 00:58:40;;;;;;;;;;;20.20;64.20;;;;;;4989353;28;87240;-59
2023/09/07 01:01:05;;;;;;;;;;;20.10;64.20;;;;;;4993007;28;87457;-55
2023/09/07 01:03:31;;;;;;;;;;;20.10;64.30;;;;;;4991548;28;88116;-56
2023/09/07 01:06:00;;;;;;;;;;;20.10;64.30;;;;;;4990972;28;86557;-54
2023/09/07 01:08:28;;;;;;;;;;;20.10;64.10;;;;;;4990782;28;87502;-54
2023/09/07 01:10:54;;;;;;;;;;;20.10;64.20;;;;;;4997679;28;91811;-57
2023/09/07 01:13:20;;;;;;;;;;;20.10;64.30;;;;;;4988455;28;88573;-50
2023/09/07 01:15:46;;;;;;;;;;;20.10;64.30;;;;;;4991709;28;88506;-55
2023/09/07 01:18:11;;;;;;;;;;;20.10;64.20;;;;;;4993729;28;88860;-52
2023/09/07 01:20:38;;;;;;;;;;;20.10;64.40;;;;;;4996196;28;88997;-58
2023/09/07 01:23:04;;;;;;;;;;;20.10;64.10;;;;;;5009988;28;91156;-54
2023/09/07 01:25:31;;;;;;;;;;;20.10;64.10;;;;;;4993496;28;87125;-56
2023/09/07 01:27:56;;;;;;;;;;;20.10;64.30;;;;;;4993843;28;89089;-54
2023/09/07 01:30:22;;;;;;;;;;;20.10;64.50;;;;;;4994630;28;87657;-56
2023/09/07 01:32:49;;;;;;;;;;;20.10;64.40;;;;;;4993397;28;87129;-55
2023/09/07 01:35:16;;;;;;;;;;;20.10;64.40;;;;;;4995591;28;87100;-48
2023/09/07 01:37:42;;;;;;;;;;;20.10;64.30;;;;;;4997475;28;88287;-54
2023/09/07 01:40:08;;;;;;;;;;;20.10;64.50;;;;;;4993327;28;87891;-56
2023/09/07 01:42:34;;;;;;;;;;;20.10;64.20;;;;;;4992926;28;89761;-55
2023/09/07 01:45:00;;;;;;;;;;;20.10;64.20;;;;;;4994343;28;87552;-54
2023/09/07 01:47:25;;;;;;;;;;;20.10;64.30;;;;;;4992992;28;87578;-48
2023/09/07 01:49:51;;;;;;;;;;;20.10;64.30;;;;;;4993077;28;88163;-55
2023/09/07 01:52:16;;;;;;;;;;;20.10;64.30;;;;;;4995615;28;87127;-55
2023/09/07 01:54:42;;;;;;;;;;;20.10;64.40;;;;;;4993775;28;87590;-56
2023/09/07 01:57:07;;;;;;;;;;;20.00;64.20;;;;;;4996691;28;88333;-58
2023/09/07 01:59:33;;;;;;;;;;;20.10;64.30;;;;;;4998393;28;87175;-54
2023/09/07 02:01:58;;;;;;;;;;;20.10;64.30;;;;;;4991691;28;88982;-53
2023/09/07 02:04:24;;;;;;;;;;;20.10;64.20;;;;;;4994613;28;87378;-56
2023/09/07 02:06:49;;;;;;;;;;;20.10;64.20;;;;;;4995587;28;88100;-53
2023/09/07 02:09:15;;;;;;;;;;;20.00;64.20;;;;;;4992757;28;88191;-53
2023/09/07 02:11:41;;;;;;;;;;;20.10;64.30;;;;;;5000527;28;87057;-51
2023/09/07 02:14:06;;;;;;;;;;;20.00;64.20;;;;;;4991659;28;87094;-56
2023/09/07 02:16:32;;;;;;;;;;;20.00;64.20;;;;;;4994369;28;88604;-56
2023/09/07 02:19:03;;;;;;;;;;;20.00;64.20;;;;;;4993720;28;86585;-57
2023/09/07 02:21:28;;;;;;;;;;;20.00;64.30;;;;;;4994717;28;87538;-55
2023/09/07 02:23:54;;;;;;;;;;;20.00;64.20;;;;;;4994686;28;87035;-59
2023/09/07 02:26:19;;;;;;;;;;;20.00;64.20;;;;;;4993476;28;87991;-56
2023/09/07 02:28:45;;;;;;;;;;;20.10;64.50;;;;;;4992205;28;88487;-56
2023/09/07 02:31:11;;;;;;;;;;;20.00;64.20;;;;;;4994102;28;87587;-56
2023/09/07 02:33:36;;;;;;;;;;;20.10;64.40;;;;;;4994445;28;87564;-58
2023/09/07 02:36:02;;;;;;;;;;;20.00;64.50;;;;;;4992096;28;88324;-57
2023/09/07 02:38:28;;;;;;;;;;;20.00;64.40;;;;;;4994532;28;87012;-58
2023/09/07 02:40:55;;;;;;;;;;;20.00;64.30;;;;;;4994439;28;87201;-55
2023/09/07 02:43:22;;;;;;;;;;;20.00;64.60;;;;;;4994975;28;87861;-52
2023/09/07 02:45:48;;;;;;;;;;;20.00;64.60;;;;;;4993034;28;88133;-52
2023/09/07 02:48:14;;;;;;;;;;;20.00;64.40;;;;;;4991876;28;89352;-52
2023/09/07 02:51:02;;;;;;;;;;;20.00;64.40;;;;;;5000093;28;88522;-56
2023/09/07 02:53:29;;;;;;;;;;;20.00;64.40;;;;;;4991162;28;89086;-55
2023/09/07 02:55:54;;;;;;;;;;;20.00;64.50;;;;;;4990563;28;89876;-56
2023/09/07 02:58:21;;;;;;;;;;;20.00;64.40;;;;;;4995595;28;87162;-57
2023/09/07 03:00:47;;;;;;;;;;;20.00;64.60;;;;;;4993011;28;87578;-54
2023/09/07 03:03:12;;;;;;;;;;;20.00;64.40;;;;;;4991995;28;88118;-56
2023/09/07 03:05:42;;;;;;;;;;;20.00;64.30;;;;;;4997368;28;87177;-55
2023/09/07 03:08:07;;;;;;;;;;;19.90;64.50;;;;;;4993172;28;88652;-55
2023/09/07 03:10:34;;;;;;;;;;;20.00;64.70;;;;;;4992068;28;87056;-56
2023/09/07 03:13:00;;;;;;;;;;;20.00;64.40;;;;;;4992213;28;87714;-54
2023/09/07 03:15:26;;;;;;;;;;;20.00;64.50;;;;;;4991918;28;89194;-58
2023/09/07 03:17:51;;;;;;;;;;;19.90;64.40;;;;;;4994550;28;87215;-56
2023/09/07 03:20:17;;;;;;;;;;;20.00;64.60;;;;;;4992354;28;87641;-55
2023/09/07 03:22:43;;;;;;;;;;;19.90;64.80;;;;;;4992339;28;88459;-56
2023/09/07 03:25:09;;;;;;;;;;;19.90;64.70;;;;;;4994338;28;87131;-53
2023/09/07 03:27:35;;;;;;;;;;;19.90;64.50;;;;;;4997137;28;88719;-55
2023/09/07 03:30:01;;;;;;;;;;;19.90;64.70;;;;;;4990558;28;87470;-53
2023/09/07 03:32:31;;;;;;;;;;;19.90;64.70;;;;;;4994719;28;87431;-52
2023/09/07 03:34:57;;;;;;;;;;;19.90;64.50;;;;;;4992276;28;87730;-59
2023/09/07 03:37:22;;;;;;;;;;;19.90;64.50;;;;;;4991884;28;87743;-56
2023/09/07 03:39:48;;;;;;;;;;;19.90;65.00;;;;;;4991793;28;88062;-57
2023/09/07 03:42:13;;;;;;;;;;;19.90;64.50;;;;;;4991353;28;89485;-56
2023/09/07 03:44:39;;;;;;;;;;;19.90;64.60;;;;;;4991521;28;87413;-57
2023/09/07 03:47:05;;;;;;;;;;;19.90;64.60;;;;;;4994226;28;87616;-55
2023/09/07 03:49:30;;;;;;;;;;;19.90;64.40;;;;;;4992147;28;87171;-57
2023/09/07 03:51:56;;;;;;;;;;;19.90;64.40;;;;;;4994256;28;87964;-57
2023/09/07 03:54:22;;;;;;;;;;;19.90;64.40;;;;;;4991152;28;89807;-53
2023/09/07 03:56:47;;;;;;;;;;;19.90;64.50;;;;;;4993040;28;86482;-55
2023/09/07 03:59:13;;;;;;;;;;;19.90;64.60;;;;;;4990514;28;87109;-52
2023/09/07 04:01:38;;;;;;;;;;;19.90;64.60;;;;;;4993310;28;88348;-57
2023/09/07 04:04:05;;;;;;;;;;;19.90;64.50;;;;;;4991949;28;88102;-56
2023/09/07 04:06:30;;;;;;;;;;;19.90;64.50;;;;;;4991117;28;88374;-54
2023/09/07 04:08:56;;;;;;;;;;;19.80;64.70;;;;;;4996048;28;88677;-52
2023/09/07 04:11:21;;;;;;;;;;;19.80;64.60;;;;;;4992587;28;89003;-55
2023/09/07 04:13:47;;;;;;;;;;;19.80;64.50;;;;;;4990812;28;88218;-57
2023/09/07 04:16:12;;;;;;;;;;;19.90;64.50;;;;;;4991530;28;87100;-52
2023/09/07 04:18:38;;;;;;;;;;;19.80;64.50;;;;;;4992174;28;87052;-55
2023/09/07 04:21:07;;;;;;;;;;;19.80;64.60;;;;;;4993820;28;87334;-58
2023/09/07 04:23:34;;;;;;;;;;;19.80;64.50;;;;;;4991492;28;87105;-57
2023/09/07 04:26:07;;;;;;;;;;;19.80;64.60;;;;;;4991266;28;87136;-54
2023/09/07 04:28:32;;;;;;;;;;;19.80;64.60;;;;;;4989088;28;90283;-53
2023/09/07 04:30:58;;;;;;;;;;;19.80;64.50;;;;;;4996058;28;87114;-53
2023/09/07 04:33:23;;;;;;;;;;;19.80;64.70;;;;;;4990382;28;88042;-54
2023/09/07 04:35:49;;;;;;;;;;;19.80;64.60;;;;;;4991371;28;87574;-54
2023/09/07 04:38:14;;;;;;;;;;;19.80;64.60;;;;;;4989299;28;87665;-51
2023/09/07 04:40:40;;;;;;;;;;;19.80;64.60;;;;;;4993029;28;88250;-56
2023/09/07 04:43:05;;;;;;;;;;;19.80;64.60;;;;;;4993385;28;87024;-57
2023/09/07 04:45:31;;;;;;;;;;;19.80;64.50;;;;;;4990089;28;87387;-56
2023/09/07 04:47:56;;;;;;;;;;;19.80;64.80;;;;;;4992965;28;88460;-53
2023/09/07 04:50:22;;;;;;;;;;;19.70;64.70;;;;;;4990876;28;87164;-56
2023/09/07 04:52:47;;;;;;;;;;;19.80;64.80;;;;;;4993153;28;87965;-54
2023/09/07 04:55:15;;;;;;;;;;;19.70;64.60;;;;;;4996638;28;87216;-55
2023/09/07 04:57:41;;;;;;;;;;;19.70;64.50;;;;;;5009941;28;90707;-53
2023/09/07 05:00:08;;;;;;;;;;;19.70;64.50;;;;;;4990709;28;88167;-59
2023/09/07 05:02:47;;;;;;;;;;;19.70;64.50;;;;;;4990393;28;88896;-56
2023/09/07 05:05:12;;;;;;;;;;;19.70;64.50;;;;;;4993283;28;88975;-56
2023/09/07 05:07:38;;;;;;;;;;;19.80;64.90;;;;;;4992871;28;90217;-58
2023/09/07 05:10:03;;;;;;;;;;;19.70;64.50;;;;;;4994598;28;86476;-55
2023/09/07 05:12:29;;;;;;;;;;;19.70;64.60;;;;;;4994221;28;88499;-54
2023/09/07 05:14:54;;;;;;;;;;;19.70;64.60;;;;;;4993918;28;87746;-54
2023/09/07 05:17:20;;;;;;;;;;;19.70;64.60;;;;;;4993134;28;87971;-54
2023/09/07 05:19:45;;;;;;;;;;;19.70;64.50;;;;;;4991912;28;88593;-54
2023/09/07 05:22:11;;;;;;;;;;;19.70;64.90;;;;;;4995410;28;87128;-53
2023/09/07 05:24:40;;;;;;;;;;;19.70;64.70;;;;;;4991551;28;88860;-54
2023/09/07 05:27:06;;;;;;;;;;;19.80;64.70;;;;;;4992161;28;88217;-55
2023/09/07 05:29:31;;;;;;;;;;;19.70;64.90;;;;;;4991387;28;87208;-57
2023/09/07 05:31:57;;;;;;;;;;;19.70;64.60;;;;;;4996550;28;87673;-56
2023/09/07 05:34:22;;;;;;;;;;;19.70;64.70;;;;;;4992080;28;89683;-59
2023/09/07 05:36:48;;;;;;;;;;;19.70;64.90;;;;;;4990526;28;87141;-55
2023/09/07 05:39:13;;;;;;;;;;;19.70;64.70;;;;;;4994668;28;88164;-55
2023/09/07 05:41:39;;;;;;;;;;;19.70;64.80;;;;;;4993597;28;88118;-55
2023/09/07 05:44:05;;;;;;;;;;;19.70;64.60;;;;;;4993641;28;88633;-58
2023/09/07 05:46:30;;;;;;;;;;;19.70;64.90;;;;;;4993411;28;87959;-57
2023/09/07 05:48:56;;;;;;;;;;;19.70;65.20;;;;;;4991847;28;87210;-57
2023/09/07 05:51:21;;;;;;;;;;;19.70;64.90;;;;;;4995827;28;87667;-58
2023/09/07 05:53:48;;;;;;;;;;;19.70;64.90;;;;;;4993576;28;89552;-57
2023/09/07 05:56:14;;;;;;;;;;;19.70;64.80;;;;;;4993966;28;87282;-54
2023/09/07 05:58:39;;;;;;;;;;;19.70;65.00;;;;;;4996096;28;87783;-55
2023/09/07 06:01:05;;;;;;;;;;;19.70;64.90;;;;;;4995147;28;89071;-56
2023/09/07 06:03:32;;;;;;;;;;;19.70;65.10;;;;;;4988815;28;89512;-57
2023/09/07 06:05:57;;;;;;;;;;;19.70;65.00;;;;;;4991436;28;90902;-56
2023/09/07 06:08:23;;;;;;;;;;;19.70;64.90;;;;;;4996620;28;87205;-54
2023/09/07 06:10:48;;;;;;;;;;;19.70;64.90;;;;;;4990079;28;88028;-57
2023/09/07 06:13:14;;;;;;;;;;;19.70;64.90;;;;;;4993668;28;89044;-57
2023/09/07 06:15:39;;;;;;;;;;;19.70;64.90;;;;;;4992384;28;87288;-53
2023/09/07 06:18:05;;;;;;;;;;;19.70;64.60;;;;;;4997641;28;87900;-49
2023/09/07 06:20:30;;;;;;;;;;;19.70;64.60;;;;;;4991265;28;87316;-56
2023/09/07 06:22:56;;;;;;;;;;;19.70;65.00;;;;;;4994021;28;87675;-54
2023/09/07 06:25:22;;;;;;;;;;;19.70;64.50;;;;;;4992571;28;88720;-56
2023/09/07 06:27:47;;;;;;;;;;;19.70;64.80;;;;;;4992417;28;87263;-54
2023/09/07 06:30:13;;;;;;;;;;;19.70;64.50;;;;;;4989125;28;88789;-58
2023/09/07 06:32:40;;;;;;;;;;;19.70;64.50;;;;;;4990569;28;88338;-57
2023/09/07 06:35:06;;;;;;;;;;;19.70;64.40;;;;;;4992449;28;87425;-55
2023/09/07 06:37:31;;;;;;;;;;;19.70;64.40;;;;;;4992149;28;88749;-53
2023/09/07 06:39:57;;;;;;;;;;;19.70;64.30;;;;;;4997044;28;87959;-55
2023/09/07 06:42:22;;;;;;;;;;;19.70;64.50;;;;;;4990885;28;88004;-57
2023/09/07 06:44:48;;;;;;;;;;;19.70;64.50;;;;;;4995567;28;88753;-55
2023/09/07 06:47:13;;;;;;;;;;;19.70;64.50;;;;;;4989348;28;86458;-54
2023/09/07 06:49:39;;;;;;;;;;;19.70;64.50;;;;;;4987432;28;87678;-57
2023/09/07 06:52:04;;;;;;;;;;;19.70;64.60;;;;;;4991012;28;87749;-54
2023/09/07 06:54:30;;;;;;;;;;;19.70;64.60;;;;;;4992972;28;88108;-59
2023/09/07 06:56:55;;;;;;;;;;;19.70;64.40;;;;;;4993322;28;88614;-56
2023/09/07 06:59:21;;;;;;;;;;;19.70;64.70;;;;;;4995798;28;91344;-55
2023/09/07 07:01:46;;;;;;;;;;;19.70;64.40;;;;;;4995187;28;87180;-53
2023/09/07 07:04:12;;;;;;;;;;;19.70;64.40;;;;;;4996785;28;88272;-58
2023/09/07 07:06:38;;;;;;;;;;;19.70;64.30;;;;;;4993451;28;88504;-53
2023/09/07 07:09:03;;;;;;;;;;;19.70;64.40;;;;;;4990175;28;89694;-58
2023/09/07 07:11:29;;;;;;;;;;;19.80;64.30;;;;;;4993588;28;88593;-56
2023/09/07 07:13:54;;;;;;;;;;;19.80;64.10;;;;;;4992399;28;87171;-56
2023/09/07 07:16:20;;;;;;;;;;;19.80;64.30;;;;;;4990999;28;87376;-56
2023/09/07 07:18:45;;;;;;;;;;;19.80;64.30;;;;;;4990687;28;89150;-57
2023/09/07 07:21:11;;;;;;;;;;;19.80;64.40;;;;;;4991914;28;87092;-58
2023/09/07 07:23:36;;;;;;;;;;;19.80;64.20;;;;;;4995631;28;88802;-55
2023/09/07 07:26:02;;;;;;;;;;;19.70;64.20;;;;;;4991125;28;87852;-56
2023/09/07 07:28:27;;;;;;;;;;;19.70;64.20;;;;;;4990957;28;87429;-55
2023/09/07 07:30:53;;;;;;;;;;;19.70;64.30;;;;;;4993857;28;88095;-53
2023/09/07 07:33:19;;;;;;;;;;;19.70;64.50;;;;;;4994249;28;88911;-52
2023/09/07 07:35:45;;;;;;;;;;;19.70;64.40;;;;;;4987552;28;87958;-54
2023/09/07 07:38:13;;;;;;;;;;;19.70;64.40;;;;;;4991367;28;89648;-55
2023/09/07 07:40:39;;;;;;;;;;;19.70;64.40;;;;;;4992705;28;87197;-55
2023/09/07 07:43:04;;;;;;;;;;;19.70;64.50;;;;;;4992316;28;88132;-57
2023/09/07 07:45:30;;;;;;;;;;;19.70;64.30;;;;;;4989612;28;88086;-52
2023/09/07 07:47:55;;;;;;;;;;;19.70;64.50;;;;;;4993618;28;87553;-55
2023/09/07 07:50:21;;;;;;;;;;;19.70;64.40;;;;;;4993817;28;88128;-53
2023/09/07 07:52:46;;;;;;;;;;;19.70;64.60;;;;;;4988549;28;87919;-56
2023/09/07 07:55:12;;;;;;;;;;;19.70;64.40;;;;;;4988271;28;87623;-59
2023/09/07 07:57:37;;;;;;;;;;;19.70;64.40;;;;;;4993549;28;88403;-55
2023/09/07 08:00:04;;;;;;;;;;;19.70;64.50;;;;;;4991723;28;88199;-53
2023/09/07 08:02:30;;;;;;;;;;;19.70;64.60;;;;;;4993690;28;88449;-53
2023/09/07 08:04:55;;;;;;;;;;;19.70;65.20;;;;;;4992978;28;87574;-56
2023/09/07 08:07:21;;;;;;;;;;;19.70;64.50;;;;;;4992162;28;87939;-55
2023/09/07 08:09:47;;;;;;;;;;;19.70;64.60;;;;;;4993507;28;89155;-55
2023/09/07 08:12:12;;;;;;;;;;;19.70;64.60;;;;;;4991128;28;87807;-58
2023/09/07 08:14:38;;;;;;;;;;;19.70;64.70;;;;;;4990252;28;88035;-59
2023/09/07 08:17:03;;;;;;;;;;;19.70;64.70;;;;;;4992397;28;88095;-58
2023/09/07 08:19:29;;;;;;;;;;;19.70;64.70;;;;;;4992298;28;87663;-56
2023/09/07 08:21:55;;;;;;;;;;;19.70;64.70;;;;;;4984150;28;88699;-57
2023/09/07 08:24:20;;;;;;;;;;;19.70;64.70;;;;;;4993511;28;87813;-56
2023/09/07 08:26:47;;;;;;;;;;;19.70;64.70;;;;;;4994552;28;87255;-53
2023/09/07 08:29:13;;;;;;;;;;;19.70;64.50;;;;;;4989254;28;89002;-53
2023/09/07 08:31:38;;;;;;;;;;;19.70;64.70;;;;;;4990813;28;88152;-55
2023/09/07 08:34:05;;;;;;;;;;;19.70;64.90;;;;;;4991080;28;88594;-48
2023/09/07 08:36:33;;;;;;;;;;;19.70;64.80;;;;;;4993425;28;88449;-56
2023/09/07 08:39:08;;;;;;;;;;;19.70;65.00;;;;;;4991948;28;87907;-53
2023/09/07 08:41:47;;;;;;;;;;;19.60;64.70;;;;;;4990395;28;89038;-54
2023/09/07 08:44:19;;;;;;;;;;;19.70;64.70;;;;;;4993217;28;89907;-57
2023/09/07 08:46:44;;;;;;;;;;;19.70;64.90;;;;;;4988566;28;87438;-55
2023/09/07 08:49:11;;;;;;;;;;;19.70;64.70;;;;;;4992550;28;87679;-49
2023/09/07 08:51:37;;;;;;;;;;;19.70;64.70;;;;;;4988030;28;87155;-54
2023/09/07 08:54:03;;;;;;;;;;;19.70;64.90;;;;;;4994276;28;87645;-56
2023/09/07 08:56:29;;;;;;;;;;;19.70;64.80;;;;;;4991245;28;88390;-56
2023/09/07 08:58:54;;;;;;;;;;;19.70;64.90;;;;;;4989141;28;87805;-53
2023/09/07 09:01:21;;;;;;;;;;;19.70;64.70;;;;;;4991899;28;88130;-58
2023/09/07 09:03:48;;;;;;;;;;;19.70;64.60;;;;;;4993582;28;88201;-55
2023/09/07 09:06:14;;;;;;;;;;;19.70;64.60;;;;;;4985206;28;89170;-48
2023/09/07 09:08:43;;;;;;;;;;;19.70;64.60;;;;;;4989944;28;87569;-57
2023/09/07 09:11:09;;;;;;;;;;;19.70;64.70;;;;;;4994670;28;88145;-55
2023/09/07 09:13:34;;;;;;;;;;;19.70;64.60;;;;;;4998765;28;90903;-53
2023/09/07 09:16:01;;;;;;;;;;;19.70;64.40;;;;;;4985586;28;88203;-55
2023/09/07 09:18:27;;;;;;;;;;;19.70;64.50;;;;;;4990089;28;87176;-56
2023/09/07 09:20:53;;;;;;;;;;;19.70;64.70;;;;;;4988691;28;88475;-54
2023/09/07 09:23:18;;;;;;;;;;;19.70;64.60;;;;;;4992956;28;89411;-58
2023/09/07 09:25:44;;;;;;;;;;;19.70;64.60;;;;;;4986577;28;87220;-54
2023/09/07 09:28:10;;;;;;;;;;;19.70;64.60;;;;;;4988703;28;87596;-56
2023/09/07 09:30:36;;;;;;;;;;;19.70;64.60;;;;;;4991901;28;89159;-57
2023/09/07 09:33:02;;;;;;;;;;;19.80;64.70;;;;;;4997279;28;87134;-54
2023/09/07 09:35:29;;;;;;;;;;;19.70;64.60;;;;;;4988408;28;88938;-52
2023/09/07 09:37:55;;;;;;;;;;;19.80;64.60;;;;;;4987956;28;86384;-55
2023/09/07 09:40:21;;;;;;;;;;;19.80;64.50;;;;;;4993193;28;87340;-57
2023/09/07 09:42:47;;;;;;;;;;;19.80;64.50;;;;;;4992450;28;88426;-57
2023/09/07 09:45:13;;;;;;;;;;;19.70;64.50;;;;;;4992308;28;88715;-56
2023/09/07 09:47:40;;;;;;;;;;;19.80;64.50;;;;;;4996020;28;88444;-55
2023/09/07 09:50:06;;;;;;;;;;;19.80;64.30;;;;;;4992763;28;88401;-58
2023/09/07 09:52:34;;;;;;;;;;;19.80;64.20;;;;;;4996256;28;88681;-53
2023/09/07 09:55:00;;;;;;;;;;;19.80;64.30;;;;;;4994029;28;88452;-56
2023/09/07 09:57:28;;;;;;;;;;;19.80;64.00;;;;;;4994109;28;87128;-57
2023/09/07 09:59:54;;;;;;;;;;;19.80;64.20;;;;;;4994721;28;87455;-52
2023/09/07 10:02:20;;;;;;;;;;;19.80;64.30;;;;;;4995693;28;87974;-59
2023/09/07 10:04:46;;;;;;;;;;;19.80;64.20;;;;;;4992065;28;87976;-52
2023/09/07 10:07:11;;;;;;;;;;;19.80;64.20;;;;;;4991843;28;88780;-59
2023/09/07 10:09:38;;;;;;;;;;;19.80;64.40;;;;;;4993047;28;90814;-55
2023/09/07 10:12:07;;;;;;;;;;;19.80;64.10;;;;;;4998668;28;88719;-56
2023/09/07 10:14:44;;;;;;;;;;;19.80;64.20;;;;;;4997789;28;87682;-56
2023/09/07 10:17:21;;;;;;;;;;;19.80;64.10;;;;;;4992113;28;87328;-54
2023/09/07 10:20:05;;;;;;;;;;;19.80;64.20;;;;;;4987443;28;87940;-57
2023/09/07 10:22:30;;;;;;;;;;;19.90;64.30;;;;;;4987408;28;89751;-53
2023/09/07 10:25:09;;;;;;;;;;;19.90;64.20;;;;;;4995004;28;87146;-52
2023/09/07 10:27:38;;;;;;;;;;;19.90;64.00;;;;;;4995742;28;90061;-56
2023/09/07 10:30:09;;;;;;;;;;;19.80;63.90;;;;;;4987605;28;88144;-57
2023/09/07 10:32:40;;;;;;;;;;;19.90;64.10;;;;;;4991007;28;87386;-59
2023/09/07 10:35:16;;;;;;;;;;;19.90;64.00;;;;;;4991907;28;88045;-56
2023/09/07 10:37:44;;;;;;;;;;;19.90;64.00;;;;;;4996249;28;89651;-59
2023/09/07 10:40:11;;;;;;;;;;;19.90;64.00;;;;;;4990328;28;87593;-58
2023/09/07 10:42:37;;;;;;;;;;;19.90;63.90;;;;;;4994255;28;88608;-56
2023/09/07 10:45:10;;;;;;;;;;;19.90;63.80;;;;;;4996489;28;87194;-55
2023/09/07 10:47:40;;;;;;;;;;;19.90;63.80;;;;;;4991786;28;89102;-54
2023/09/07 10:50:06;;;;;;;;;;;19.90;63.80;;;;;;4987877;28;88543;-56
2023/09/07 10:52:33;;;;;;;;;;;20.00;63.70;;;;;;4993077;28;86363;-59
2023/09/07 10:54:59;;;;;;;;;;;19.90;63.80;;;;;;4994435;28;87471;-51
2023/09/07 10:57:24;;;;;;;;;;;19.90;63.70;;;;;;4989760;28;88187;-56
2023/09/07 10:59:50;;;;;;;;;;;19.90;63.80;;;;;;4990903;28;88052;-50
2023/09/07 11:02:15;;;;;;;;;;;20.00;63.90;;;;;;4992496;28;88390;-54
2023/09/07 11:04:41;;;;;;;;;;;19.90;63.70;;;;;;4994213;28;87282;-57
2023/09/07 11:07:06;;;;;;;;;;;19.90;63.50;;;;;;4992693;28;87540;-60
2023/09/07 11:09:32;;;;;;;;;;;19.90;63.50;;;;;;4990697;28;88019;-54
2023/09/07 11:12:03;;;;;;;;;;;19.90;63.70;;;;;;4993915;28;87150;-56
2023/09/07 11:14:29;;;;;;;;;;;19.90;63.60;;;;;;4993493;28;88008;-58
2023/09/07 11:16:55;;;;;;;;;;;19.90;63.70;;;;;;4990381;28;86618;-58
2023/09/07 11:19:21;;;;;;;;;;;20.00;63.70;;;;;;4992794;28;87106;-57
2023/09/07 11:21:47;;;;;;;;;;;20.00;63.70;;;;;;4997367;28;88773;-55
2023/09/07 11:24:13;;;;;;;;;;;20.00;63.70;;;;;;4986828;28;88146;-53
2023/09/07 11:26:42;;;;;;;;;;;20.00;63.70;;;;;;4997386;28;88924;-55
2023/09/07 11:29:08;;;;;;;;;;;20.00;63.60;;;;;;4991044;28;89628;-56
2023/09/07 11:31:33;;;;;;;;;;;20.00;63.70;;;;;;4997101;28;87180;-57
2023/09/07 11:33:59;;;;;;;;;;;20.00;63.50;;;;;;4992876;28;87141;-56
2023/09/07 11:36:25;;;;;;;;;;;20.00;63.80;;;;;;4989586;28;88249;-55
2023/09/07 11:38:51;;;;;;;;;;;20.00;63.70;;;;;;4993336;28;87121;-56
2023/09/07 11:41:16;;;;;;;;;;;20.10;63.80;;;;;;4995140;28;86634;-56
2023/09/07 11:43:42;;;;;;;;;;;20.10;64.40;;;;;;4997990;28;87817;-54
2023/09/07 11:46:07;;;;;;;;;;;20.10;63.60;;;;;;4994158;28;88840;-59
2023/09/07 11:48:34;;;;;;;;;;;20.10;64.30;;;;;;4993413;28;89138;-57
2023/09/07 11:50:59;;;;;;;;;;;20.10;63.70;;;;;;4987116;28;87097;-56
2023/09/07 11:53:25;;;;;;;;;;;20.10;63.60;;;;;;4988194;28;87559;-59
2023/09/07 11:55:51;;;;;;;;;;;20.10;63.70;;;;;;4993551;28;88203;-56
2023/09/07 11:58:16;;;;;;;;;;;20.10;63.80;;;;;;4993805;28;87642;-54
2023/09/07 12:00:43;;;;;;;;;;;20.10;63.70;;;;;;4988264;28;88823;-58
2023/09/07 12:03:08;;;;;;;;;;;20.10;63.90;;;;;;4989903;28;88746;-56
2023/09/07 12:05:35;;;;;;;;;;;20.10;63.60;;;;;;4993748;28;88721;-59
2023/09/07 12:08:01;;;;;;;;;;;20.10;63.70;;;;;;4992072;28;88480;-59
2023/09/07 12:10:27;;;;;;;;;;;20.10;63.60;;;;;;4989186;28;87126;-56
2023/09/07 12:12:52;;;;;;;;;;;20.10;63.60;;;;;;4995295;28;88396;-55
2023/09/07 12:15:18;;;;;;;;;;;20.10;63.70;;;;;;4992225;28;88220;-57
2023/09/07 12:17:43;;;;;;;;;;;20.10;63.90;;;;;;4991149;28;87451;-51
2023/09/07 12:20:10;;;;;;;;;;;20.10;63.80;;;;;;4992666;28;87522;-56
2023/09/07 12:22:37;;;;;;;;;;;20.10;63.70;;;;;;4989439;28;89479;-56
2023/09/07 12:25:10;;;;;;;;;;;20.10;63.80;;;;;;4995326;28;87166;-52
2023/09/07 12:27:36;;;;;;;;;;;20.10;63.80;;;;;;4984273;28;87905;-58
2023/09/07 12:30:06;;;;;;;;;;;20.10;63.70;;;;;;4988762;28;86502;-56
2023/09/07 12:32:31;;;;;;;;;;;20.10;63.90;;;;;;4992130;28;87137;-50
2023/09/07 12:34:57;;;;;;;;;;;20.10;63.80;;;;;;4992083;28;88005;-58
2023/09/07 12:37:23;;;;;;;;;;;20.20;63.80;;;;;;4986602;28;88133;-50
2023/09/07 12:39:51;;;;;;;;;;;20.10;63.80;;;;;;4989191;28;90152;-52
2023/09/07 12:42:17;;;;;;;;;;;20.10;63.90;;;;;;4992534;28;87091;-53
2023/09/07 12:44:43;;;;;;;;;;;20.10;63.70;;;;;;4992545;28;87152;-55
2023/09/07 12:47:09;;;;;;;;;;;20.20;63.90;;;;;;4991389;28;87608;-57
2023/09/07 12:49:34;;;;;;;;;;;20.20;63.80;;;;;;4988923;28;87253;-52
2023/09/07 12:52:00;;;;;;;;;;;20.20;63.90;;;;;;4992862;28;87993;-58
2023/09/07 12:54:25;;;;;;;;;;;20.20;63.90;;;;;;4988850;28;88745;-53
2023/09/07 12:56:52;;;;;;;;;;;20.20;63.90;;;;;;4988249;28;87133;-56
2023/09/07 12:59:18;;;;;;;;;;;20.20;63.90;;;;;;4989318;28;87630;-56
2023/09/07 13:01:47;;;;;;;;;;;20.20;64.00;;;;;;4989691;28;90602;-58
2023/09/07 13:04:12;;;;;;;;;;;20.20;63.90;;;;;;4993278;28;88378;-57
2023/09/07 13:06:38;;;;;;;;;;;20.20;63.80;;;;;;4995002;28;88022;-55
2023/09/07 13:09:04;;;;;;;;;;;20.20;63.70;;;;;;4992346;28;89511;-59
2023/09/07 13:11:30;;;;;;;;;;;20.20;63.70;;;;;;4990636;28;88721;-56
2023/09/07 13:13:55;;;;;;;;;;;20.30;63.80;;;;;;4992319;28;88256;-55
2023/09/07 13:16:43;;;;;;;;;;;20.20;63.70;;;;;;4994618;28;87367;-56
2023/09/07 13:19:08;;;;;;;;;;;20.20;63.70;;;;;;4993852;28;88923;-56
2023/09/07 13:21:34;;;;;;;;;;;20.20;63.70;;;;;;4998569;28;88393;-54
2023/09/07 13:23:59;;;;;;;;;;;20.20;63.70;;;;;;4992637;28;87876;-56
2023/09/07 13:26:25;;;;;;;;;;;20.30;63.80;;;;;;4989562;28;88205;-54
2023/09/07 13:28:50;;;;;;;;;;;20.20;63.70;;;;;;4995057;28;88555;-53
2023/09/07 13:31:16;;;;;;;;;;;20.20;63.70;;;;;;5001458;28;87177;-53
2023/09/07 13:33:41;;;;;;;;;;;20.10;63.30;;;;;;4995670;28;88536;-55
2023/09/07 13:36:07;;;;;;;;;;;20.10;63.20;;;;;;4989864;28;87168;-56
2023/09/07 13:38:33;;;;;;;;;;;20.00;63.30;;;;;;4995240;28;87766;-54
2023/09/07 13:40:58;;;;;;;;;;;20.00;63.60;;;;;;4993604;28;88762;-50
2023/09/07 13:43:24;;;;;;;;;;;20.00;63.10;;;;;;4996978;28;86506;-54
2023/09/07 13:45:49;;;;;;;;;;;20.10;63.40;;;;;;4993094;28;88242;-56
2023/09/07 13:48:14;;;;;;;;;;;20.10;63.30;;;;;;4991719;28;88381;-53
2023/09/07 13:50:40;;;;;;;;;;;20.10;63.70;;;;;;4993553;28;89887;-48
2023/09/07 13:53:06;;;;;;;;;;;20.10;64.00;;;;;;4992468;28;88909;-56
2023/09/07 13:55:31;;;;;;;;;;;20.10;63.90;;;;;;4994938;28;87873;-51
2023/09/07 13:57:57;;;;;;;;;;;20.20;63.80;;;;;;4997007;28;87679;-53
2023/09/07 14:00:23;;;;;;;;;;;20.10;63.70;;;;;;4995121;28;88219;-52
2023/09/07 14:02:48;;;;;;;;;;;20.20;63.70;;;;;;4989329;28;87270;-48
2023/09/07 14:05:14;;;;;;;;;;;20.20;63.70;;;;;;4991744;28;87759;-50
2023/09/07 14:07:39;;;;;;;;;;;20.10;63.70;;;;;;4995819;28;87578;-51
2023/09/07 14:10:05;;;;;;;;;;;20.10;63.60;;;;;;4996281;28;87404;-53